createdAt,value
2019-01-27T00:00:05.178Z,-4.58
2019-01-27T00:01:15.177Z,-4.49
2019-01-27T00:02:25.160Z,-4.53
2019-01-27T00:03:35.243Z,-4.52
2019-01-27T00:04:44.968Z,-4.51
2019-01-27T00:05:54.944Z,-4.53
2019-01-27T00:07:04.925Z,-4.51
2019-01-27T00:08:18.238Z,-4.44
2019-01-27T00:09:28.337Z,-4.38
2019-01-27T00:10:38.318Z,-4.41
2019-01-27T00:11:48.306Z,-4.49
2019-01-27T00:12:58.285Z,-4.52
2019-01-27T00:14:08.266Z,-4.47
2019-01-27T00:15:18.343Z,-4.45
2019-01-27T00:16:28.323Z,-4.44
2019-01-27T00:17:38.299Z,-4.47
2019-01-27T00:18:48.282Z,-4.47
2019-01-27T00:19:58.262Z,-4.42
2019-01-27T00:21:08.243Z,-4.4
2019-01-27T00:22:18.254Z,-4.49
2019-01-27T00:23:28.233Z,-4.51
2019-01-27T00:24:37.884Z,-4.49
2019-01-27T00:25:47.858Z,-4.47
2019-01-27T00:26:58.019Z,-4.44
2019-01-27T00:28:07.995Z,-4.44
2019-01-27T00:29:17.978Z,-4.4
2019-01-27T00:30:27.954Z,-4.4
2019-01-27T00:31:37.930Z,-4.42
2019-01-27T00:32:48.015Z,-4.41
2019-01-27T00:33:58.010Z,-4.44
2019-01-27T00:35:07.988Z,-4.52
2019-01-27T00:36:17.968Z,-4.51
2019-01-27T00:37:27.945Z,-4.42
2019-01-27T00:38:37.971Z,-4.52
2019-01-27T00:39:47.949Z,-4.58
2019-01-27T00:40:57.930Z,-4.53
2019-01-27T00:42:07.907Z,-4.58
2019-01-27T00:43:17.880Z,-4.61
2019-01-27T00:44:27.966Z,-4.58
2019-01-27T00:45:37.939Z,-4.61
2019-01-27T00:46:47.915Z,-4.73
2019-01-27T00:47:57.901Z,-4.69
2019-01-27T00:49:07.875Z,-4.76
2019-01-27T00:50:17.856Z,-4.69
2019-01-27T00:51:27.852Z,-4.65
2019-01-27T00:52:37.829Z,-4.71
2019-01-27T00:53:47.804Z,-4.67
2019-01-27T00:54:57.777Z,-4.61
2019-01-27T00:56:07.909Z,-4.59
2019-01-27T00:57:17.378Z,-4.45
2019-01-27T00:58:27.352Z,-4.42
2019-01-27T00:59:37.331Z,-4.51
2019-01-27T01:00:47.306Z,-4.49
2019-01-27T01:01:57.333Z,-4.51
2019-01-27T01:03:07.311Z,-4.51
2019-01-27T01:04:17.291Z,-4.52
2019-01-27T01:05:27.026Z,-4.55
2019-01-27T01:06:37.005Z,-4.55
2019-01-27T01:07:47.035Z,-4.56
2019-01-27T01:08:57.014Z,-4.59
2019-01-27T01:10:06.990Z,-4.59
2019-01-27T01:11:16.965Z,-4.62
2019-01-27T01:12:26.944Z,-4.71
2019-01-27T01:13:37.035Z,-4.76
2019-01-27T01:14:47.014Z,-4.77
2019-01-27T01:15:56.996Z,-4.65
2019-01-27T01:17:06.973Z,-4.62
2019-01-27T01:18:16.969Z,-4.74
2019-01-27T01:19:26.992Z,-4.62
2019-01-27T01:20:36.974Z,-4.58
2019-01-27T01:21:46.952Z,-4.52
2019-01-27T01:22:56.927Z,-4.58
2019-01-27T01:24:06.900Z,-4.59
2019-01-27T01:25:16.721Z,-4.59
2019-01-27T01:26:26.445Z,-4.58
2019-01-27T01:27:36.420Z,-4.61
2019-01-27T01:28:47.119Z,-4.62
2019-01-27T01:29:57.102Z,-4.65
2019-01-27T01:31:07.179Z,-4.59
2019-01-27T01:32:17.157Z,-4.59
2019-01-27T01:33:27.133Z,-4.59
2019-01-27T01:34:37.113Z,-4.7
2019-01-27T01:35:47.086Z,-4.58
2019-01-27T01:36:57.272Z,-4.67
2019-01-27T01:38:07.251Z,-4.61
2019-01-27T01:39:17.247Z,-4.63
2019-01-27T01:40:27.228Z,-4.67
2019-01-27T01:41:37.207Z,-4.63
2019-01-27T01:42:47.282Z,-4.63
2019-01-27T01:43:57.264Z,-4.69
2019-01-27T01:45:07.238Z,-4.65
2019-01-27T01:46:17.210Z,-4.7
2019-01-27T01:47:27.184Z,-4.65
2019-01-27T01:48:37.157Z,-4.65
2019-01-27T01:49:47.128Z,-4.67
2019-01-27T01:50:57.109Z,-4.65
2019-01-27T01:52:07.086Z,-4.65
2019-01-27T01:53:17.059Z,-4.65
2019-01-27T01:54:27.084Z,-4.69
2019-01-27T01:55:37.062Z,-4.67
2019-01-27T01:56:47.040Z,-4.59
2019-01-27T01:57:57.012Z,-4.58
2019-01-27T01:59:06.993Z,-4.51
2019-01-27T02:00:17.018Z,-4.53
2019-01-27T02:01:26.994Z,-4.47
2019-01-27T02:02:36.974Z,-4.52
2019-01-27T02:03:46.947Z,-4.51
2019-01-27T02:04:56.930Z,-4.53
2019-01-27T02:06:06.956Z,-4.58
2019-01-27T02:07:16.931Z,-4.58
2019-01-27T02:08:26.903Z,-4.52
2019-01-27T02:09:36.878Z,-4.51
2019-01-27T02:10:46.852Z,-4.55
2019-01-27T02:11:56.924Z,-4.62
2019-01-27T02:13:06.898Z,-4.59
2019-01-27T02:14:16.872Z,-4.53
2019-01-27T02:15:26.595Z,-4.58
2019-01-27T02:16:36.566Z,-4.55
2019-01-27T02:17:46.642Z,-4.53
2019-01-27T02:18:56.620Z,-4.55
2019-01-27T02:20:06.594Z,-4.58
2019-01-27T02:21:16.569Z,-4.55
2019-01-27T02:22:26.547Z,-4.58
2019-01-27T02:23:36.623Z,-4.61
2019-01-27T02:24:46.594Z,-4.62
2019-01-27T02:25:56.576Z,-4.71
2019-01-27T02:27:06.550Z,-4.74
2019-01-27T02:28:16.523Z,-4.7
2019-01-27T02:29:26.550Z,-4.63
2019-01-27T02:30:36.282Z,-4.65
2019-01-27T02:31:46.274Z,-4.69
2019-01-27T02:32:56.259Z,-4.77
2019-01-27T02:34:06.244Z,-4.71
2019-01-27T02:35:16.273Z,-4.74
2019-01-27T02:36:26.262Z,-4.76
2019-01-27T02:37:36.239Z,-4.8
2019-01-27T02:38:46.227Z,-4.9
2019-01-27T02:39:56.222Z,-4.84
2019-01-27T02:41:06.257Z,-4.79
2019-01-27T02:42:16.232Z,-4.81
2019-01-27T02:43:26.205Z,-4.87
2019-01-27T02:44:36.179Z,-4.9
2019-01-27T02:45:46.168Z,-4.8
2019-01-27T02:46:56.204Z,-4.77
2019-01-27T02:48:06.190Z,-4.76
2019-01-27T02:49:16.164Z,-4.87
2019-01-27T02:50:26.150Z,-4.81
2019-01-27T02:51:36.129Z,-4.91
2019-01-27T02:52:46.164Z,-4.83
2019-01-27T02:53:56.139Z,-4.83
2019-01-27T02:55:06.147Z,-4.88
2019-01-27T02:56:16.154Z,-4.92
2019-01-27T02:57:26.176Z,-4.92
2019-01-27T02:58:36.210Z,-4.94
2019-01-27T02:59:46.188Z,-4.97
2019-01-27T03:00:56.162Z,-4.91
2019-01-27T03:02:06.140Z,-4.95
2019-01-27T03:03:16.122Z,-4.91
2019-01-27T03:04:26.158Z,-4.9
2019-01-27T03:05:36.135Z,-4.92
2019-01-27T03:06:46.112Z,-4.92
2019-01-27T03:07:56.131Z,-4.91
2019-01-27T03:09:06.113Z,-4.94
2019-01-27T03:10:16.205Z,-4.88
2019-01-27T03:11:26.193Z,-4.9
2019-01-27T03:12:36.172Z,-4.92
2019-01-27T03:13:46.162Z,-4.92
2019-01-27T03:14:56.145Z,-5.01
2019-01-27T03:16:06.173Z,-4.94
2019-01-27T03:17:16.169Z,-5.05
2019-01-27T03:18:26.149Z,-4.94
2019-01-27T03:19:36.131Z,-4.97
2019-01-27T03:20:46.135Z,-4.95
2019-01-27T03:21:56.223Z,-4.98
2019-01-27T03:23:06.203Z,-4.97
2019-01-27T03:24:16.179Z,-4.92
2019-01-27T03:25:26.154Z,-4.92
2019-01-27T03:26:36.185Z,-5.06
2019-01-27T03:27:46.263Z,-4.94
2019-01-27T03:28:56.246Z,-4.92
2019-01-27T03:30:06.230Z,-4.97
2019-01-27T03:31:16.234Z,-4.98
2019-01-27T03:32:26.239Z,-5.06
2019-01-27T03:33:36.202Z,-4.92
2019-01-27T03:34:45.945Z,-5
2019-01-27T03:35:55.922Z,-5.05
2019-01-27T03:37:05.903Z,-4.97
2019-01-27T03:38:15.893Z,-5.09
2019-01-27T03:39:25.976Z,-5.05
2019-01-27T03:40:35.951Z,-5.12
2019-01-27T03:41:45.937Z,-5.01
2019-01-27T03:42:55.913Z,-5.05
2019-01-27T03:44:05.893Z,-5.12
2019-01-27T03:45:15.933Z,-5.12
2019-01-27T03:46:25.921Z,-5.12
2019-01-27T03:47:35.898Z,-5.06
2019-01-27T03:48:45.898Z,-5.16
2019-01-27T03:49:55.879Z,-5.1
2019-01-27T03:51:05.908Z,-5.08
2019-01-27T03:52:15.886Z,-5.08
2019-01-27T03:53:25.873Z,-5.17
2019-01-27T03:54:35.613Z,-5.08
2019-01-27T03:55:46.575Z,-5.16
2019-01-27T03:56:56.647Z,-5.09
2019-01-27T03:58:06.636Z,-5.02
2019-01-27T03:59:16.617Z,-5.09
2019-01-27T04:00:26.595Z,-5.12
2019-01-27T04:01:36.580Z,-4.98
2019-01-27T04:02:46.614Z,-5.06
2019-01-27T04:03:56.595Z,-5.06
2019-01-27T04:05:06.577Z,-4.98
2019-01-27T04:06:16.619Z,-5.02
2019-01-27T04:07:26.611Z,-5.01
2019-01-27T04:08:36.697Z,-5.09
2019-01-27T04:09:46.684Z,-5.06
2019-01-27T04:10:56.661Z,-5.12
2019-01-27T04:12:06.649Z,-5
2019-01-27T04:13:16.625Z,-4.97
2019-01-27T04:14:26.654Z,-4.98
2019-01-27T04:15:36.632Z,-5.1
2019-01-27T04:16:46.615Z,-5.1
2019-01-27T04:17:56.629Z,-5.02
2019-01-27T04:19:06.608Z,-5.08
2019-01-27T04:20:16.704Z,-5.13
2019-01-27T04:21:26.683Z,-5.09
2019-01-27T04:22:36.709Z,-5.1
2019-01-27T04:23:46.430Z,-5.05
2019-01-27T04:24:56.413Z,-5.12
2019-01-27T04:26:06.492Z,-5.08
2019-01-27T04:27:16.550Z,-5.12
2019-01-27T04:28:26.531Z,-5.16
2019-01-27T04:29:36.507Z,-5.06
2019-01-27T04:30:46.486Z,-5.13
2019-01-27T04:31:56.524Z,-5.13
2019-01-27T04:33:06.503Z,-5.27
2019-01-27T04:34:16.486Z,-5.3
2019-01-27T04:35:26.479Z,-5.2
2019-01-27T04:36:36.461Z,-5.25
2019-01-27T04:37:46.539Z,-5.2
2019-01-27T04:38:56.522Z,-5.21
2019-01-27T04:40:06.501Z,-5.28
2019-01-27T04:41:16.164Z,-5.3
2019-01-27T04:42:26.139Z,-5.3
2019-01-27T04:43:36.115Z,-5.37
2019-01-27T04:44:46.092Z,-5.3
2019-01-27T04:45:56.072Z,-5.31
2019-01-27T04:47:06.065Z,-5.37
2019-01-27T04:48:16.038Z,-5.31
2019-01-27T04:49:26.062Z,-5.37
2019-01-27T04:50:36.057Z,-5.38
2019-01-27T04:51:46.078Z,-5.41
2019-01-27T04:52:56.057Z,-5.38
2019-01-27T04:54:06.037Z,-5.43
2019-01-27T04:55:16.087Z,-5.39
2019-01-27T04:56:26.077Z,-5.39
2019-01-27T04:57:36.064Z,-5.38
2019-01-27T04:58:46.071Z,-5.38
2019-01-27T04:59:56.052Z,-5.43
2019-01-27T05:01:06.119Z,-5.45
2019-01-27T05:02:16.109Z,-5.34
2019-01-27T05:03:26.102Z,-5.48
2019-01-27T05:04:36.087Z,-5.41
2019-01-27T05:05:46.066Z,-5.45
2019-01-27T05:06:56.143Z,-5.45
2019-01-27T05:08:06.124Z,-5.43
2019-01-27T05:09:16.101Z,-5.41
2019-01-27T05:10:26.079Z,-5.38
2019-01-27T05:11:36.056Z,-5.35
2019-01-27T05:12:46.142Z,-5.3
2019-01-27T05:13:56.132Z,-5.35
2019-01-27T05:15:06.112Z,-5.34
2019-01-27T05:16:16.094Z,-5.39
2019-01-27T05:17:26.070Z,-5.38
2019-01-27T05:18:36.157Z,-5.3
2019-01-27T05:19:46.134Z,-5.35
2019-01-27T05:20:55.857Z,-5.41
2019-01-27T05:22:05.836Z,-5.31
2019-01-27T05:23:15.816Z,-5.27
2019-01-27T05:24:25.535Z,-5.27
2019-01-27T05:25:35.516Z,-5.3
2019-01-27T05:26:45.491Z,-5.3
2019-01-27T05:27:55.465Z,-5.34
2019-01-27T05:29:05.439Z,-5.31
2019-01-27T05:30:15.580Z,-5.3
2019-01-27T05:31:25.310Z,-5.3
2019-01-27T05:32:35.313Z,-5.27
2019-01-27T05:33:45.286Z,-5.28
2019-01-27T05:34:55.265Z,-5.25
2019-01-27T05:36:05.298Z,-5.32
2019-01-27T05:37:15.275Z,-5.3
2019-01-27T05:38:25.250Z,-5.28
2019-01-27T05:39:35.225Z,-5.27
2019-01-27T05:40:45.241Z,-5.25
2019-01-27T05:41:55.017Z,-5.37
2019-01-27T05:43:04.996Z,-5.28
2019-01-27T05:44:14.981Z,-5.31
2019-01-27T05:45:24.966Z,-5.27
2019-01-27T05:46:34.947Z,-5.41
2019-01-27T05:47:45.040Z,-5.28
2019-01-27T05:48:55.026Z,-5.39
2019-01-27T05:50:05.192Z,-5.35
2019-01-27T05:51:15.179Z,-5.21
2019-01-27T05:52:25.158Z,-5.31
2019-01-27T05:53:35.221Z,-5.25
2019-01-27T05:54:45.205Z,-5.28
2019-01-27T05:55:55.197Z,-5.27
2019-01-27T05:57:05.174Z,-5.28
2019-01-27T05:58:15.153Z,-5.25
2019-01-27T05:59:25.187Z,-5.25
2019-01-27T06:00:35.263Z,-5.21
2019-01-27T06:01:44.989Z,-5.27
2019-01-27T06:02:54.964Z,-5.28
2019-01-27T06:04:04.939Z,-5.21
2019-01-27T06:05:15.065Z,-5.2
2019-01-27T06:06:25.072Z,-5.21
2019-01-27T06:07:35.045Z,-5.23
2019-01-27T06:08:45.031Z,-5.16
2019-01-27T06:09:55.010Z,-5.25
2019-01-27T06:11:05.085Z,-5.25
2019-01-27T06:12:15.065Z,-5.21
2019-01-27T06:13:25.046Z,-5.19
2019-01-27T06:14:35.024Z,-5.2
2019-01-27T06:15:59.574Z,-5.23
2019-01-27T06:17:09.655Z,-5.35
2019-01-27T06:18:19.642Z,-5.28
2019-01-27T06:19:29.618Z,-5.12
2019-01-27T06:20:39.601Z,-5.2
2019-01-27T06:21:51.003Z,-5.16
2019-01-27T06:23:00.990Z,-5.19
2019-01-27T06:24:10.983Z,-5.25
2019-01-27T06:25:20.991Z,-5.12
2019-01-27T06:26:33.613Z,-5.19
2019-01-27T06:27:43.673Z,-5.19
2019-01-27T06:28:53.652Z,-5.21
2019-01-27T06:30:03.628Z,-5.17
2019-01-27T06:31:13.603Z,-5.2
2019-01-27T06:32:23.579Z,-5.19
2019-01-27T06:33:33.650Z,-5.32
2019-01-27T06:34:43.626Z,-5.28
2019-01-27T06:35:53.613Z,-5.31
2019-01-27T06:37:03.337Z,-5.28
2019-01-27T06:38:13.311Z,-5.27
2019-01-27T06:39:23.387Z,-5.38
2019-01-27T06:40:33.364Z,-5.31
2019-01-27T06:41:43.363Z,-5.38
2019-01-27T06:42:53.334Z,-5.3
2019-01-27T06:44:03.313Z,-5.32
2019-01-27T06:45:13.394Z,-5.39
2019-01-27T06:46:23.374Z,-5.41
2019-01-27T06:47:32.876Z,-5.41
2019-01-27T06:48:42.896Z,-5.55
2019-01-27T06:49:52.871Z,-5.45
2019-01-27T06:51:02.949Z,-5.48
2019-01-27T06:52:12.923Z,-5.49
2019-01-27T06:53:22.896Z,-5.45
2019-01-27T06:54:32.875Z,-5.39
2019-01-27T06:55:42.911Z,-5.31
2019-01-27T06:56:53.036Z,-5.39
2019-01-27T06:58:03.016Z,-5.28
2019-01-27T06:59:12.994Z,-5.45
2019-01-27T07:00:22.970Z,-5.5
2019-01-27T07:01:32.947Z,-5.48
2019-01-27T07:02:43.023Z,-5.5
2019-01-27T07:03:53.293Z,-5.38
2019-01-27T07:05:03.354Z,-5.41
2019-01-27T07:06:13.342Z,-5.46
2019-01-27T07:07:23.313Z,-5.41
2019-01-27T07:08:33.388Z,-5.32
2019-01-27T07:09:43.363Z,-5.31
2019-01-27T07:10:53.339Z,-5.38
2019-01-27T07:12:03.315Z,-5.34
2019-01-27T07:13:13.295Z,-5.27
2019-01-27T07:14:23.380Z,-5.32
2019-01-27T07:15:33.357Z,-5.28
2019-01-27T07:16:43.330Z,-5.28
2019-01-27T07:17:53.303Z,-5.28
2019-01-27T07:19:03.278Z,-5.27
2019-01-27T07:20:13.252Z,-5.32
2019-01-27T07:21:23.229Z,-5.31
2019-01-27T07:22:33.203Z,-5.25
2019-01-27T07:23:42.925Z,-5.43
2019-01-27T07:24:52.899Z,-5.39
2019-01-27T07:26:02.927Z,-5.45
2019-01-27T07:27:12.909Z,-5.43
2019-01-27T07:28:22.884Z,-5.48
2019-01-27T07:29:32.863Z,-5.37
2019-01-27T07:30:42.975Z,-5.46
2019-01-27T07:31:53.051Z,-5.43
2019-01-27T07:33:03.028Z,-5.46
2019-01-27T07:34:13.047Z,-5.41
2019-01-27T07:35:23.017Z,-5.41
2019-01-27T07:36:33.013Z,-5.37
2019-01-27T07:37:43.091Z,-5.49
2019-01-27T07:38:53.073Z,-5.46
2019-01-27T07:40:02.778Z,-5.45
2019-01-27T07:41:12.751Z,-5.52
2019-01-27T07:42:37.375Z,-5.43
2019-01-27T07:43:47.451Z,-5.37
2019-01-27T07:44:57.433Z,-5.52
2019-01-27T07:46:07.415Z,-5.41
2019-01-27T07:47:17.394Z,-5.46
2019-01-27T07:48:27.420Z,-5.52
2019-01-27T07:49:37.398Z,-5.5
2019-01-27T07:50:47.390Z,-5.53
2019-01-27T07:51:57.367Z,-5.49
2019-01-27T07:53:07.345Z,-5.53
2019-01-27T07:54:17.117Z,-5.58
2019-01-27T07:55:27.089Z,-5.5
2019-01-27T07:56:37.065Z,-5.52
2019-01-27T07:57:47.038Z,-5.56
2019-01-27T07:58:57.009Z,-5.39
2019-01-27T08:00:07.049Z,-5.39
2019-01-27T08:01:18.514Z,-5.41
2019-01-27T08:02:28.489Z,-5.43
2019-01-27T08:03:38.467Z,-5.53
2019-01-27T08:04:48.440Z,-5.37
2019-01-27T08:05:58.465Z,-5.41
2019-01-27T08:07:08.452Z,-5.43
2019-01-27T08:08:18.451Z,-5.43
2019-01-27T08:09:28.426Z,-5.43
2019-01-27T08:10:38.404Z,-5.39
2019-01-27T08:11:48.429Z,-5.39
2019-01-27T08:12:58.407Z,-5.38
2019-01-27T08:14:08.393Z,-5.32
2019-01-27T08:15:18.362Z,-5.45
2019-01-27T08:16:27.839Z,-5.39
2019-01-27T08:17:37.864Z,-5.39
2019-01-27T08:18:47.858Z,-5.39
2019-01-27T08:19:57.833Z,-5.25
2019-01-27T08:21:07.856Z,-5.27
2019-01-27T08:22:17.830Z,-5.32
2019-01-27T08:23:27.805Z,-5.3
2019-01-27T08:24:37.783Z,-5.27
2019-01-27T08:25:47.762Z,-5.39
2019-01-27T08:26:57.743Z,-5.39
2019-01-27T08:28:07.717Z,-5.3
2019-01-27T08:29:17.801Z,-5.39
2019-01-27T08:30:27.777Z,-5.21
2019-01-27T08:31:37.751Z,-5.27
2019-01-27T08:32:47.737Z,-5.23
2019-01-27T08:33:57.708Z,-5.21
2019-01-27T08:35:07.780Z,-5.27
2019-01-27T08:36:17.754Z,-5.23
2019-01-27T08:37:27.729Z,-5.27
2019-01-27T08:38:37.457Z,-5.28
2019-01-27T08:39:47.437Z,-5.28
2019-01-27T08:40:57.514Z,-5.28
2019-01-27T08:42:07.491Z,-5.17
2019-01-27T08:43:17.512Z,-5.23
2019-01-27T08:44:27.500Z,-5.16
2019-01-27T08:45:37.504Z,-5.17
2019-01-27T08:46:47.490Z,-5.16
2019-01-27T08:47:57.498Z,-5.13
2019-01-27T08:49:07.479Z,-5.09
2019-01-27T08:50:17.456Z,-5.05
2019-01-27T08:51:27.180Z,-5
2019-01-27T08:52:37.263Z,-5
2019-01-27T08:53:47.238Z,-5.05
2019-01-27T08:54:57.215Z,-5.05
2019-01-27T08:56:07.191Z,-5.05
2019-01-27T08:57:17.169Z,-5.08
2019-01-27T08:58:27.169Z,-5.06
2019-01-27T08:59:37.148Z,-4.94
2019-01-27T09:00:47.123Z,-4.91
2019-01-27T09:01:57.114Z,-4.94
2019-01-27T09:03:08.168Z,-4.88
2019-01-27T09:04:18.248Z,-4.97
2019-01-27T09:05:28.221Z,-4.88
2019-01-27T09:06:38.193Z,-4.97
2019-01-27T09:07:48.176Z,-4.95
2019-01-27T09:08:59.447Z,-4.9
2019-01-27T09:10:09.429Z,-4.81
2019-01-27T09:11:19.407Z,-4.88
2019-01-27T09:12:29.384Z,-4.87
2019-01-27T09:13:39.359Z,-4.84
2019-01-27T09:14:49.346Z,-4.84
2019-01-27T09:15:59.101Z,-4.87
2019-01-27T09:17:09.075Z,-4.79
2019-01-27T09:18:19.054Z,-4.81
2019-01-27T09:19:29.030Z,-4.8
2019-01-27T09:20:39.009Z,-4.73
2019-01-27T09:21:49.081Z,-4.81
2019-01-27T09:22:59.055Z,-4.76
2019-01-27T09:24:09.036Z,-4.8
2019-01-27T09:25:19.017Z,-4.8
2019-01-27T09:26:28.994Z,-4.81
2019-01-27T09:27:39.070Z,-4.84
2019-01-27T09:28:49.050Z,-4.83
2019-01-27T09:29:59.029Z,-4.87
2019-01-27T09:31:09.012Z,-4.81
2019-01-27T09:32:18.997Z,-4.84
2019-01-27T09:33:28.973Z,-4.88
2019-01-27T09:34:38.948Z,-4.81
2019-01-27T09:35:48.935Z,-4.73
2019-01-27T09:36:58.914Z,-4.76
2019-01-27T09:38:08.905Z,-4.8
2019-01-27T09:39:18.881Z,-4.84
2019-01-27T09:40:28.862Z,-4.74
2019-01-27T09:41:38.842Z,-4.74
2019-01-27T09:42:48.818Z,-4.76
2019-01-27T09:43:58.793Z,-4.73
2019-01-27T09:45:08.824Z,-4.7
2019-01-27T09:46:18.800Z,-4.67
2019-01-27T09:47:28.779Z,-4.61
2019-01-27T09:48:38.759Z,-4.7
2019-01-27T09:49:48.739Z,-4.77
2019-01-27T09:50:58.763Z,-4.62
2019-01-27T09:52:08.742Z,-4.74
2019-01-27T09:53:18.725Z,-4.56
2019-01-27T09:54:28.705Z,-4.63
2019-01-27T09:55:38.679Z,-4.59
2019-01-27T09:56:49.507Z,-4.53
2019-01-27T09:57:59.490Z,-4.58
2019-01-27T09:59:09.519Z,-4.59
2019-01-27T10:00:19.248Z,-4.52
2019-01-27T10:01:29.227Z,-4.45
2019-01-27T10:02:39.575Z,-4.41
2019-01-27T10:03:49.555Z,-4.45
2019-01-27T10:04:59.536Z,-4.44
2019-01-27T10:06:09.562Z,-4.42
2019-01-27T10:07:19.559Z,-4.52
2019-01-27T10:08:29.537Z,-4.38
2019-01-27T10:09:39.513Z,-4.38
2019-01-27T10:10:49.489Z,-4.41
2019-01-27T10:11:59.464Z,-4.35
2019-01-27T10:13:09.449Z,-4.42
2019-01-27T10:14:19.469Z,-4.34
2019-01-27T10:15:29.445Z,-4.33
2019-01-27T10:16:39.422Z,-4.35
2019-01-27T10:17:49.397Z,-4.33
2019-01-27T10:18:59.372Z,-4.26
2019-01-27T10:20:09.400Z,-4.24
2019-01-27T10:21:19.383Z,-4.26
2019-01-27T10:22:44.001Z,-4.26
2019-01-27T10:23:53.983Z,-4.33
2019-01-27T10:25:03.958Z,-4.27
2019-01-27T10:26:21.231Z,-4.26
2019-01-27T10:27:45.847Z,-4.3
2019-01-27T10:28:55.844Z,-4.23
2019-01-27T10:30:05.819Z,-4.2
2019-01-27T10:31:15.847Z,-4.23
2019-01-27T10:32:25.824Z,-4.2
2019-01-27T10:33:35.802Z,-4.2
2019-01-27T10:34:45.779Z,-4.2
2019-01-27T10:35:55.852Z,-4.17
2019-01-27T10:37:11.947Z,-4.16
2019-01-27T10:38:22.196Z,-4.22
2019-01-27T10:39:32.173Z,-4.17
2019-01-27T10:40:44.396Z,-4.16
2019-01-27T10:41:54.383Z,-4.2
2019-01-27T10:43:04.361Z,-4.13
2019-01-27T10:44:14.359Z,-4.13
2019-01-27T10:45:24.333Z,-4.14
2019-01-27T10:46:34.324Z,-4.2
2019-01-27T10:47:44.401Z,-4.19
2019-01-27T10:48:54.557Z,-4.22
2019-01-27T10:50:04.532Z,-4.08
2019-01-27T10:51:14.509Z,-4.05
2019-01-27T10:52:24.606Z,-4.2
2019-01-27T10:53:39.505Z,-4.02
2019-01-27T10:54:49.488Z,-4.17
2019-01-27T10:55:59.462Z,-4.12
2019-01-27T10:57:09.438Z,-4.09
2019-01-27T10:58:19.421Z,-4.09
2019-01-27T10:59:29.399Z,-4.13
2019-01-27T11:00:39.799Z,-4.04
2019-01-27T11:01:49.778Z,-4.14
2019-01-27T11:02:59.853Z,-4.04
2019-01-27T11:04:09.847Z,-4.08
2019-01-27T11:05:19.874Z,-4.08
2019-01-27T11:06:29.848Z,-4.02
2019-01-27T11:07:39.830Z,-4.16
2019-01-27T11:08:49.807Z,-4.02
2019-01-27T11:09:59.795Z,-4.06
2019-01-27T11:11:09.872Z,-4.13
2019-01-27T11:12:19.603Z,-4.05
2019-01-27T11:13:29.581Z,-4.02
2019-01-27T11:14:39.559Z,-4.06
2019-01-27T11:15:49.543Z,-3.94
2019-01-27T11:16:59.595Z,-4.05
2019-01-27T11:18:09.571Z,-3.96
2019-01-27T11:19:19.547Z,-3.99
2019-01-27T11:20:29.529Z,-4.02
2019-01-27T11:21:45.278Z,-3.96
2019-01-27T11:23:10.000Z,-4.02
2019-01-27T11:24:19.980Z,-3.95
2019-01-27T11:25:30.082Z,-4.02
2019-01-27T11:26:40.074Z,-3.95
2019-01-27T11:27:50.050Z,-4.02
2019-01-27T11:29:01.115Z,-3.96
2019-01-27T11:30:11.102Z,-3.96
2019-01-27T11:31:21.077Z,-3.99
2019-01-27T11:32:31.056Z,-3.94
2019-01-27T11:33:41.137Z,-3.91
2019-01-27T11:34:51.119Z,-4.01
2019-01-27T11:36:01.106Z,-3.94
2019-01-27T11:37:11.088Z,-3.99
2019-01-27T11:38:21.065Z,-3.95
2019-01-27T11:39:31.040Z,-3.91
2019-01-27T11:40:41.031Z,-3.94
2019-01-27T11:41:51.046Z,-3.88
2019-01-27T11:44:25.654Z,-3.96
2019-01-27T11:45:35.679Z,-3.96
2019-01-27T11:46:45.656Z,-4.01
2019-01-27T11:47:55.646Z,-3.99
2019-01-27T11:49:05.622Z,-3.88
2019-01-27T11:50:15.610Z,-3.91
2019-01-27T11:51:25.590Z,-3.95
2019-01-27T11:52:35.565Z,-3.98
2019-01-27T11:53:45.546Z,-3.99
2019-01-27T11:54:55.533Z,-3.96
2019-01-27T11:56:05.607Z,-3.9
2019-01-27T11:57:15.582Z,-4.02
2019-01-27T11:58:25.571Z,-4.05
2019-01-27T11:59:35.550Z,-4.04
2019-01-27T12:00:45.534Z,-4.19
2019-01-27T12:01:55.512Z,-4.17
2019-01-27T12:03:05.489Z,-4.17
2019-01-27T12:04:16.447Z,-4.2
2019-01-27T12:05:26.425Z,-4.06
2019-01-27T12:06:36.412Z,-4.12
2019-01-27T12:07:46.438Z,-4.2
2019-01-27T12:08:56.176Z,-4.2
2019-01-27T12:10:06.155Z,-4.17
2019-01-27T12:11:16.128Z,-4.12
2019-01-27T12:12:26.111Z,-4.16
2019-01-27T12:13:37.473Z,-4.26
2019-01-27T12:14:47.521Z,-4.33
2019-01-27T12:15:57.501Z,-4.23
2019-01-27T12:17:07.483Z,-4.3
2019-01-27T12:18:17.462Z,-4.31
2019-01-27T12:19:27.535Z,-4.31
2019-01-27T12:20:37.516Z,-4.33
2019-01-27T12:21:47.495Z,-4.27
2019-01-27T12:22:57.468Z,-4.31
2019-01-27T12:24:07.447Z,-4.31
2019-01-27T12:25:17.523Z,-4.37
2019-01-27T12:26:27.500Z,-4.31
2019-01-27T12:27:37.480Z,-4.31
2019-01-27T12:28:47.465Z,-4.49
2019-01-27T12:29:57.443Z,-4.49
2019-01-27T12:31:07.532Z,-4.62
2019-01-27T12:32:17.507Z,-4.55
2019-01-27T12:33:42.056Z,-4.58
2019-01-27T12:34:52.037Z,-4.55
2019-01-27T12:36:02.052Z,-4.49
2019-01-27T12:37:12.130Z,-4.42
2019-01-27T12:38:22.122Z,-4.38
2019-01-27T12:39:46.738Z,-4.42
2019-01-27T12:40:56.714Z,-4.44
2019-01-27T12:42:06.806Z,-4.44
2019-01-27T12:43:16.786Z,-4.47
2019-01-27T12:44:26.767Z,-4.44
2019-01-27T12:45:36.750Z,-4.4
2019-01-27T12:46:46.723Z,-4.3
2019-01-27T12:47:56.822Z,-4.3
2019-01-27T12:49:06.815Z,-4.27
2019-01-27T12:50:16.806Z,-4.3
2019-01-27T12:51:26.788Z,-4.19
2019-01-27T12:52:36.769Z,-4.33
2019-01-27T12:53:46.842Z,-4.34
2019-01-27T12:54:56.823Z,-4.34
2019-01-27T12:56:06.809Z,-4.41
2019-01-27T12:57:16.782Z,-4.26
2019-01-27T12:58:26.761Z,-4.27
2019-01-27T12:59:37.312Z,-4.41
2019-01-27T13:00:47.288Z,-4.34
2019-01-27T13:01:57.268Z,-4.35
2019-01-27T13:03:07.255Z,-4.31
2019-01-27T13:04:17.230Z,-4.31
2019-01-27T13:05:27.308Z,-4.33
2019-01-27T13:06:37.286Z,-4.31
2019-01-27T13:07:48.782Z,-4.4
2019-01-27T13:08:58.756Z,-4.42
2019-01-27T13:10:08.734Z,-4.38
2019-01-27T13:11:18.811Z,-4.4
2019-01-27T13:12:28.806Z,-4.49
2019-01-27T13:13:39.404Z,-4.42
2019-01-27T13:14:49.389Z,-4.51
2019-01-27T13:15:59.363Z,-4.53
2019-01-27T13:17:12.221Z,-4.56
2019-01-27T13:18:22.195Z,-4.56
2019-01-27T13:19:32.174Z,-4.56
2019-01-27T13:20:42.150Z,-4.67
2019-01-27T13:21:52.141Z,-4.73
2019-01-27T13:23:02.224Z,-4.81
2019-01-27T13:24:12.200Z,-4.84
2019-01-27T13:25:22.179Z,-4.9
2019-01-27T13:26:32.202Z,-4.81
2019-01-27T13:27:42.215Z,-4.87
2019-01-27T13:28:52.290Z,-4.88
2019-01-27T13:30:02.268Z,-4.88
2019-01-27T13:31:12.246Z,-4.92
2019-01-27T13:32:23.789Z,-4.8
2019-01-27T13:33:33.772Z,-4.88
2019-01-27T13:34:43.862Z,-4.71
2019-01-27T13:35:53.837Z,-4.8
2019-01-27T13:37:03.821Z,-4.74
2019-01-27T13:38:13.804Z,-4.73
2019-01-27T13:39:23.830Z,-4.92
2019-01-27T13:40:33.916Z,-4.77
2019-01-27T13:41:44.037Z,-4.87
2019-01-27T13:42:54.019Z,-4.95
2019-01-27T13:44:03.996Z,-4.9
2019-01-27T13:45:13.978Z,-4.87
2019-01-27T13:46:24.059Z,-4.87
2019-01-27T13:47:34.037Z,-4.83
2019-01-27T13:48:44.014Z,-4.9
2019-01-27T13:49:53.992Z,-4.91
2019-01-27T13:51:03.976Z,-4.9
2019-01-27T13:52:14.007Z,-4.95
2019-01-27T13:53:23.994Z,-4.91
2019-01-27T13:54:33.718Z,-4.84
2019-01-27T13:55:43.698Z,-4.94
2019-01-27T13:56:53.672Z,-4.95
2019-01-27T13:58:03.752Z,-4.98
2019-01-27T13:59:13.729Z,-5.02
2019-01-27T14:00:24.128Z,-5.16
2019-01-27T14:01:33.853Z,-5.13
2019-01-27T14:02:43.830Z,-5.16
2019-01-27T14:03:53.810Z,-5.13
2019-01-27T14:05:05.173Z,-5.12
2019-01-27T14:06:15.182Z,-5.12
2019-01-27T14:07:25.175Z,-5.19
2019-01-27T14:08:35.151Z,-5.17
2019-01-27T14:09:44.988Z,-5.28
2019-01-27T14:10:54.964Z,-5.28
2019-01-27T14:12:04.936Z,-5.3
2019-01-27T14:13:15.089Z,-5.28
2019-01-27T14:14:25.159Z,-5.27
2019-01-27T14:15:35.236Z,-5.3
2019-01-27T14:16:45.212Z,-5.2
2019-01-27T14:17:56.004Z,-5.23
2019-01-27T14:19:06.589Z,-5.25
2019-01-27T14:20:16.571Z,-5.3
2019-01-27T14:21:26.548Z,-5.25
2019-01-27T14:22:36.525Z,-5.25
2019-01-27T14:23:46.526Z,-5.27
2019-01-27T14:24:56.499Z,-5.31
2019-01-27T14:26:06.477Z,-5.27
2019-01-27T14:27:16.453Z,-5.32
2019-01-27T14:28:26.425Z,-5.28
2019-01-27T14:29:36.410Z,-5.28
2019-01-27T14:30:46.390Z,-5.28
2019-01-27T14:31:56.122Z,-5.25
2019-01-27T14:33:06.245Z,-5.32
2019-01-27T14:34:16.224Z,-5.25
2019-01-27T14:35:26.198Z,-5.25
2019-01-27T14:36:36.168Z,-5.2
2019-01-27T14:37:46.146Z,-5.3
2019-01-27T14:38:56.275Z,-5.3
2019-01-27T14:40:06.255Z,-5.28
2019-01-27T14:41:16.227Z,-5.27
2019-01-27T14:42:26.205Z,-5.25
2019-01-27T14:43:36.185Z,-5.34
2019-01-27T14:44:46.262Z,-5.31
2019-01-27T14:45:56.247Z,-5.37
2019-01-27T14:47:06.222Z,-5.27
2019-01-27T14:48:16.196Z,-5.31
2019-01-27T14:49:26.175Z,-5.28
2019-01-27T14:50:36.252Z,-5.3
2019-01-27T14:51:46.233Z,-5.27
2019-01-27T14:52:56.209Z,-5.34
2019-01-27T14:54:06.187Z,-5.34
2019-01-27T14:55:16.163Z,-5.3
2019-01-27T14:56:26.238Z,-5.34
2019-01-27T14:57:36.213Z,-5.45
2019-01-27T14:58:46.187Z,-5.32
2019-01-27T14:59:56.166Z,-5.41
2019-01-27T15:01:06.140Z,-5.39
2019-01-27T15:02:16.113Z,-5.43
2019-01-27T15:03:26.089Z,-5.41
2019-01-27T15:04:36.065Z,-5.49
2019-01-27T15:05:46.063Z,-5.49
2019-01-27T15:06:56.042Z,-5.56
2019-01-27T15:08:06.170Z,-5.46